Time;durP1;ratioP1;P1;durP2;ratioP2;P2;SDS_P1;SDS_P2;PMS_P1;PMS_P2;Temp;Humidity;BMP_temperature;BMP_pressure;BME280_temperature;BME280_humidity;BME280_pressure;Samples;Min_cycle;Max_cycle;Signal;HPM_P1;HPM_P2
2021/09/11 00:00:39;;;;;;;13.03;11.83;;;19.30;75.00;;;18.47;79.46;98026.66;5029528;28;20520;-75
2021/09/11 00:03:06;;;;;;;12.73;11.40;;;19.30;75.50;;;18.57;79.49;98043.09;5030679;28;20460;-76
2021/09/11 00:05:33;;;;;;;12.73;11.63;;;19.30;75.70;;;18.50;79.60;98035.19;5029900;28;20546;-75
2021/09/11 00:08:00;;;;;;;12.30;11.30;;;19.20;75.60;;;18.44;79.49;98028.03;5031407;28;20458;-75
2021/09/11 00:10:27;;;;;;;13.80;12.43;;;19.20;75.50;;;18.46;79.75;98035.97;5030557;28;20454;-75
2021/09/11 00:12:56;;;;;;;12.90;11.80;;;19.20;75.70;;;18.37;80.09;98028.25;5028465;28;20553;-76
2021/09/11 00:15:25;;;;;;;13.43;12.33;;;19.20;76.20;;;18.52;79.93;98032.16;5031548;28;20466;-76
2021/09/11 00:17:52;;;;;;;13.30;12.20;;;19.20;76.20;;;18.40;80.03;98021.44;5031705;28;20455;-76
2021/09/11 00:20:19;;;;;;;13.10;11.90;;;19.20;76.30;;;18.53;79.76;98031.06;5030790;28;20839;-75
2021/09/11 00:22:46;;;;;;;12.70;11.70;;;19.20;76.40;;;18.46;79.95;98039.50;5029843;28;20557;-76
2021/09/11 00:25:14;;;;;;;12.80;11.80;;;19.20;76.40;;;18.37;80.11;98024.72;5026971;28;20524;-76
2021/09/11 00:27:41;;;;;;;13.37;12.17;;;19.20;76.50;;;18.34;80.08;98020.59;5028006;28;20534;-76
2021/09/11 00:30:11;;;;;;;13.20;12.10;;;19.10;76.50;;;18.38;80.09;98024.44;5029844;28;20528;-76
2021/09/11 00:32:42;;;;;;;13.03;11.80;;;19.10;76.50;;;18.50;79.66;98034.34;5032199;28;20566;-76
2021/09/11 00:35:12;;;;;;;13.80;12.60;;;19.20;76.60;;;18.44;79.64;98036.22;5036976;28;21013;-76
2021/09/11 00:37:39;;;;;;;13.37;12.17;;;19.20;76.50;;;18.37;80.44;98022.78;5014143;28;20545;-76
2021/09/11 00:40:08;;;;;;;12.97;11.77;;;19.10;76.70;;;18.32;81.01;98013.75;5026052;28;20645;-76
2021/09/11 00:42:35;;;;;;;13.47;12.27;;;19.10;77.40;;;18.29;80.85;98022.47;5028830;28;20581;-76
2021/09/11 00:45:03;;;;;;;12.13;11.13;;;19.10;77.50;;;18.30;80.63;98027.69;5032754;28;20461;-76
2021/09/11 00:47:31;;;;;;;12.10;11.10;;;19.10;77.40;;;18.29;80.70;98031.53;5046441;28;20556;-76
2021/09/11 00:49:58;;;;;;;12.13;11.23;;;19.10;77.50;;;18.28;80.71;98029.88;5029019;28;20497;-76
2021/09/11 00:52:25;;;;;;;12.23;11.20;;;19.00;77.50;;;18.24;81.18;98029.56;5030641;28;20450;-76
2021/09/11 00:54:54;;;;;;;13.23;11.93;;;19.00;78.00;;;18.24;81.08;98034.22;5031152;28;20490;-76
2021/09/11 00:57:22;;;;;;;12.97;11.67;;;19.00;78.00;;;18.23;81.02;98027.94;5028371;28;20490;-76
2021/09/11 00:59:49;;;;;;;14.30;12.53;;;19.00;78.10;;;18.19;81.13;98026.78;5031111;28;20450;-76
2021/09/11 01:02:16;;;;;;;12.70;11.70;;;19.00;78.00;;;18.29;80.74;98020.59;5031394;28;20508;-76
2021/09/11 01:04:45;;;;;;;13.63;12.30;;;19.10;78.40;;;18.26;80.23;98018.34;5029003;28;20873;-76
2021/09/11 01:07:12;;;;;;;12.93;11.73;;;19.10;77.80;;;18.29;80.61;98037.00;5037405;28;20490;-77
2021/09/11 01:09:39;;;;;;;13.57;12.50;;;19.10;77.90;;;18.27;80.58;98028.19;5030869;28;20461;-76
2021/09/11 01:12:08;;;;;;;13.50;12.23;;;19.00;77.80;;;18.29;80.48;98037.00;5032125;28;20462;-76
2021/09/11 01:14:35;;;;;;;13.37;12.30;;;19.00;77.80;;;18.30;80.12;98033.16;5034540;28;20513;-76
2021/09/11 01:17:02;;;;;;;13.43;12.40;;;19.10;77.80;;;18.29;80.25;98037.00;5047416;28;21022;-76
2021/09/11 01:19:29;;;;;;;14.03;12.83;;;19.10;77.80;;;18.35;79.96;98041.38;5031207;28;20545;-76
2021/09/11 01:21:58;;;;;;;14.13;12.90;;;19.10;77.70;;;18.40;79.43;98044.13;5029416;28;20870;-76
2021/09/11 01:24:26;;;;;;;14.07;12.77;;;19.10;77.30;;;18.43;79.58;98041.97;5032174;28;20524;-76
2021/09/11 01:26:53;;;;;;;13.80;12.63;;;19.20;77.40;;;18.51;78.99;98041.44;5030705;28;20514;-76
2021/09/11 01:29:20;;;;;;;14.53;13.23;;;19.20;77.10;;;18.53;78.76;98042.84;5030645;28;20498;-76
2021/09/11 01:31:47;;;;;;;13.87;12.77;;;19.20;76.80;;;18.49;79.29;98036.25;5031212;28;20516;-76
2021/09/11 01:34:14;;;;;;;14.00;12.10;;;19.20;76.90;;;18.44;79.69;98029.94;5027543;28;21338;-76
2021/09/11 01:36:41;;;;;;;12.97;11.67;;;19.20;77.30;;;18.50;79.40;98034.34;5025706;28;20486;-76
2021/09/11 01:39:11;;;;;;;12.97;11.97;;;19.20;77.30;;;18.45;79.72;98035.13;5035722;28;20481;-76
2021/09/11 01:41:40;;;;;;;13.90;12.70;;;19.20;77.30;;;18.50;79.43;98037.06;5032510;28;20469;-76
2021/09/11 01:44:07;;;;;;;13.47;12.30;;;19.30;77.30;;;18.46;79.69;98039.50;5000153;28;20486;-76
2021/09/11 01:46:34;;;;;;;13.60;12.40;;;19.20;77.40;;;18.48;79.59;98028.31;5017262;28;20540;-76
2021/09/11 01:49:03;;;;;;;13.40;12.30;;;19.20;77.30;;;18.43;79.82;98031.84;5033756;28;20532;-76
2021/09/11 01:51:29;;;;;;;13.47;12.37;;;19.20;77.40;;;18.13;79.98;98000.53;5034825;28;21241;-76
2021/09/11 01:53:56;;;;;;;13.43;12.33;;;19.10;77.50;;;18.36;80.33;98043.03;5033637;28;20510;-76
2021/09/11 01:56:23;;;;;;;13.17;12.17;;;19.10;77.80;;;18.34;79.90;98034.28;5036710;28;20575;-76
2021/09/11 01:58:52;;;;;;;13.70;12.40;;;19.10;77.70;;;18.47;80.08;98043.09;5034677;28;20494;-76
2021/09/11 02:01:20;;;;;;;12.83;11.63;;;19.20;78.00;;;18.44;79.98;98043.63;5033049;28;20813;-76
2021/09/11 02:03:47;;;;;;;14.03;12.83;;;19.20;77.90;;;18.40;79.85;98046.88;5051241;28;21022;-76
2021/09/11 02:06:14;;;;;;;13.50;12.20;;;19.20;77.60;;;18.35;80.12;98046.00;5032801;28;20451;-76
2021/09/11 02:08:40;;;;;;;13.00;11.80;;;19.20;77.90;;;18.36;79.91;98043.03;5033315;28;20481;-76
2021/09/11 02:11:07;;;;;;;13.00;12.00;;;19.10;77.90;;;18.37;80.08;98043.88;5033492;28;20526;-74
2021/09/11 02:13:34;;;;;;;14.07;12.77;;;19.10;77.90;;;18.37;80.16;98043.88;5033422;28;20480;-76
2021/09/11 02:16:03;;;;;;;13.07;11.97;;;19.10;77.80;;;18.31;80.41;98045.75;5032953;28;20538;-75
2021/09/11 02:18:30;;;;;;;13.60;12.50;;;19.10;78.10;;;18.35;80.54;98046.84;5033890;28;20489;-76
2021/09/11 02:20:57;;;;;;;13.90;12.50;;;19.10;78.20;;;18.35;80.26;98051.47;5034677;28;20968;-76
2021/09/11 02:23:24;;;;;;;13.20;11.93;;;19.10;78.10;;;18.33;80.25;98040.84;5031858;28;20486;-76
2021/09/11 02:25:51;;;;;;;14.30;13.00;;;19.10;78.10;;;18.31;80.51;98047.66;5033859;28;20554;-76
2021/09/11 02:28:18;;;;;;;14.10;13.00;;;19.10;78.30;;;18.38;80.43;98046.31;5035943;28;20471;-76
2021/09/11 02:30:45;;;;;;;13.40;12.20;;;19.10;78.30;;;18.33;80.59;98043.56;5034034;28;20459;-76
2021/09/11 02:33:14;;;;;;;13.10;11.80;;;19.10;78.40;;;18.24;80.77;98036.94;5031838;28;20953;-76
2021/09/11 02:35:41;;;;;;;14.97;13.67;;;19.00;78.40;;;18.22;80.91;98044.59;5033536;28;20565;-77
2021/09/11 02:38:08;;;;;;;13.80;12.57;;;19.00;78.60;;;18.24;81.00;98056.91;5034686;28;20458;-76
2021/09/11 02:40:35;;;;;;;13.97;12.63;;;19.00;78.70;;;18.24;81.05;98050.63;5033286;28;20533;-76
2021/09/11 02:43:02;;;;;;;14.30;13.00;;;18.90;78.90;;;18.18;81.29;98038.81;5034387;28;20478;-77
2021/09/11 02:45:29;;;;;;;15.43;13.87;;;18.90;79.00;;;18.11;81.33;98052.72;5035107;28;20534;-76
2021/09/11 02:47:56;;;;;;;14.90;13.60;;;18.90;79.00;;;18.15;81.61;98049.50;5031254;28;20454;-76
2021/09/11 02:50:24;;;;;;;15.20;13.90;;;18.90;79.30;;;18.12;81.73;98048.94;5033528;28;20470;-76
2021/09/11 02:52:51;;;;;;;14.63;13.23;;;18.90;79.50;;;18.00;81.97;98045.53;5033918;28;20463;-75
2021/09/11 02:55:18;;;;;;;15.50;14.20;;;18.90;79.70;;;18.06;82.17;98051.91;5033309;28;21043;-75
2021/09/11 02:57:45;;;;;;;14.17;12.97;;;18.80;80.00;;;17.98;82.44;98055.91;5031292;28;20882;-75
2021/09/11 03:00:13;;;;;;;15.43;14.13;;;18.80;80.20;;;17.93;82.71;98047.66;5034524;28;20965;-75
2021/09/11 03:02:40;;;;;;;13.87;12.77;;;18.80;80.50;;;17.93;82.62;98053.97;5031852;28;20467;-75
2021/09/11 03:05:08;;;;;;;15.23;13.67;;;18.70;80.60;;;17.90;82.97;98051.75;5030406;28;20462;-75
2021/09/11 03:07:36;;;;;;;15.43;14.20;;;18.70;80.90;;;17.84;83.13;98050.06;5032767;28;20542;-75
2021/09/11 03:10:04;;;;;;;15.60;14.10;;;18.60;81.00;;;17.86;83.20;98053.34;5030751;28;20528;-75
2021/09/11 03:12:31;;;;;;;15.47;14.20;;;18.60;81.30;;;17.87;82.95;98056.91;5031392;28;20485;-75
2021/09/11 03:14:58;;;;;;;14.73;13.53;;;18.60;81.30;;;17.81;83.77;98059.59;5033950;28;20478;-76
2021/09/11 03:17:25;;;;;;;14.40;13.20;;;18.60;81.50;;;17.81;83.38;98056.88;5027596;28;20547;-76
2021/09/11 03:19:52;;;;;;;16.00;12.87;;;18.60;81.70;;;17.83;83.11;98059.34;5032935;28;20545;-75
2021/09/11 03:22:20;;;;;;;14.30;13.10;;;18.60;81.70;;;17.83;82.99;98060.19;5032327;28;20455;-76
2021/09/11 03:24:48;;;;;;;14.90;13.60;;;18.60;81.50;;;17.77;82.97;98053.00;5032082;28;20458;-76
2021/09/11 03:27:15;;;;;;;14.33;13.00;;;18.60;81.50;;;17.82;83.27;98064.00;5034282;28;20534;-76
2021/09/11 03:29:42;;;;;;;14.43;13.23;;;18.50;81.70;;;17.71;82.99;98054.06;5033282;28;20458;-76
2021/09/11 03:32:09;;;;;;;14.70;13.50;;;18.50;81.70;;;17.77;83.46;98061.22;5032589;28;20568;-76
2021/09/11 03:34:37;;;;;;;14.97;13.67;;;18.50;82.00;;;17.72;83.54;98060.34;5031925;28;20549;-79
2021/09/11 03:37:04;;;;;;;15.83;14.50;;;18.50;82.10;;;17.74;83.62;98066.38;5030319;28;20460;-77
2021/09/11 03:39:31;;;;;;;15.43;14.03;;;18.50;82.30;;;17.87;83.03;98068.66;5033869;28;20453;-76
2021/09/11 03:42:00;;;;;;;14.60;13.30;;;18.50;82.10;;;17.74;83.34;98063.63;5033611;28;20993;-76
2021/09/11 03:44:27;;;;;;;14.90;13.40;;;18.50;82.00;;;17.72;83.72;98065.81;5035053;28;20479;-76
2021/09/11 03:46:54;;;;;;;14.83;13.43;;;18.50;82.30;;;17.65;83.59;98063.28;5032254;28;21021;-76
2021/09/11 03:49:21;;;;;;;15.27;14.07;;;18.50;82.40;;;17.74;83.11;98069.94;5032510;28;20454;-76
2021/09/11 03:51:48;;;;;;;16.33;15.03;;;18.50;82.20;;;17.79;83.11;98067.25;5031122;28;20961;-76
2021/09/11 03:54:15;;;;;;;15.07;13.80;;;18.60;82.10;;;17.74;83.17;98072.66;5033900;28;20545;-76
2021/09/11 03:56:42;;;;;;;15.33;14.03;;;18.50;82.10;;;17.84;82.34;98072.75;5032707;28;20466;-76
2021/09/11 03:59:10;;;;;;;14.90;13.60;;;18.60;81.80;;;17.72;82.65;98066.66;5026872;28;20498;-76
2021/09/11 04:01:37;;;;;;;15.27;14.03;;;18.60;81.80;;;17.75;82.86;98070.78;5031374;28;20474;-76
2021/09/11 04:04:04;;;;;;;14.00;12.90;;;18.50;81.80;;;17.70;82.46;98047.78;5029599;28;20939;-76
2021/09/11 04:06:31;;;;;;;15.23;13.93;;;18.60;81.80;;;17.90;82.18;98067.31;5030873;28;20876;-76
2021/09/11 04:08:58;;;;;;;14.23;13.03;;;18.60;81.60;;;17.88;81.94;98070.31;5028762;28;20458;-76
2021/09/11 04:11:25;;;;;;;14.30;13.00;;;18.60;81.20;;;17.87;82.18;98067.84;5030796;28;20545;-76
2021/09/11 04:13:52;;;;;;;13.63;12.43;;;18.60;81.20;;;17.59;82.23;98024.22;5026929;28;20498;-76
2021/09/11 04:16:20;;;;;;;14.20;13.10;;;18.60;81.30;;;17.88;82.19;98061.31;5029971;28;21013;-76
2021/09/11 04:18:47;;;;;;;14.63;13.40;;;18.70;81.40;;;17.86;82.37;98071.66;5028861;28;20498;-76
2021/09/11 04:21:14;;;;;;;16.10;14.63;;;18.60;81.50;;;17.87;82.08;98065.13;5029162;28;20450;-76
2021/09/11 04:23:41;;;;;;;14.80;13.53;;;18.60;81.60;;;17.82;82.52;98065.91;5026531;28;20565;-76
2021/09/11 04:26:09;;;;;;;16.80;15.30;;;18.60;81.50;;;17.84;82.67;98066.47;5028508;28;20549;-76
2021/09/11 04:28:36;;;;;;;14.83;13.50;;;18.60;81.70;;;17.89;82.25;98065.69;5029225;28;20533;-76
2021/09/11 04:31:03;;;;;;;15.70;14.30;;;18.70;81.60;;;17.65;82.07;98023.16;5031645;28;20485;-76
2021/09/11 04:33:31;;;;;;;15.00;13.50;;;18.70;81.50;;;17.79;81.67;98039.09;5028669;28;20545;-76
2021/09/11 04:35:58;;;;;;;14.33;13.17;;;18.70;81.10;;;18.02;81.60;98076.19;5030794;28;20528;-76
2021/09/11 04:38:25;;;;;;;14.70;13.27;;;18.80;81.20;;;18.06;81.08;98074.56;5034908;28;20500;-76
2021/09/11 04:40:52;;;;;;;15.00;13.70;;;18.80;81.00;;;18.05;81.24;98078.41;5041852;28;20496;-75
2021/09/11 04:43:19;;;;;;;14.70;13.37;;;18.80;80.80;;;18.02;81.24;98076.19;5046349;28;20517;-76
2021/09/11 04:45:46;;;;;;;14.90;13.50;;;18.80;80.70;;;17.93;81.65;98077.72;5032162;28;20537;-76
2021/09/11 04:48:13;;;;;;;14.80;13.60;;;18.80;80.90;;;18.03;81.42;98088.78;5031523;28;20520;-75
2021/09/11 04:50:42;;;;;;;15.63;14.13;;;18.80;80.80;;;18.04;81.35;98084.94;5030184;28;20455;-76
2021/09/11 04:53:09;;;;;;;15.73;14.23;;;18.80;80.90;;;18.07;81.34;98095.34;5030349;28;20541;-75
2021/09/11 04:55:36;;;;;;;14.37;13.10;;;18.80;80.90;;;18.10;81.42;98094.00;5030858;28;20499;-76
2021/09/11 04:58:05;;;;;;;15.77;14.47;;;18.80;80.90;;;18.09;80.87;98082.25;5033165;28;20489;-76
2021/09/11 05:00:32;;;;;;;17.23;15.63;;;18.90;80.70;;;18.05;81.39;98086.59;5047519;28;20466;-76
2021/09/11 05:03:00;;;;;;;16.00;14.70;;;18.90;80.80;;;18.11;81.30;98088.25;5028880;28;20522;-76
2021/09/11 05:05:27;;;;;;;16.47;14.73;;;18.90;80.80;;;18.14;81.20;98099.78;5031365;28;21022;-76
2021/09/11 05:07:56;;;;;;;16.00;14.60;;;18.90;80.90;;;18.24;80.82;98102.56;5031448;28;20924;-76
2021/09/11 05:10:25;;;;;;;16.23;14.80;;;18.90;80.70;;;18.14;81.13;98094.31;5031264;28;20446;-76
2021/09/11 05:12:53;;;;;;;16.90;15.47;;;18.90;80.50;;;18.16;81.04;98108.53;5036733;28;20518;-76
2021/09/11 05:15:21;;;;;;;17.70;16.10;;;18.90;80.60;;;18.20;80.90;98093.25;5038717;28;20470;-76
2021/09/11 05:17:48;;;;;;;18.00;16.20;;;18.90;80.70;;;18.19;81.04;98097.88;5050023;28;20993;-76
2021/09/11 05:20:16;;;;;;;16.97;15.47;;;19.00;80.60;;;18.27;80.80;98099.28;5033430;28;20545;-76
2021/09/11 05:22:43;;;;;;;20.10;17.53;;;19.00;80.70;;;18.24;80.64;98099.84;5034647;28;20462;-76
2021/09/11 05:25:13;;;;;;;17.20;15.70;;;19.00;80.40;;;18.23;81.09;98103.66;5034874;28;20482;-76
2021/09/11 05:27:41;;;;;;;17.73;16.13;;;19.00;80.70;;;18.19;80.87;98105.28;5037205;28;20789;-76
2021/09/11 05:30:09;;;;;;;18.57;16.97;;;19.00;80.60;;;18.30;80.67;98112.47;5034868;28;21012;-76
2021/09/11 05:32:36;;;;;;;17.53;15.87;;;19.10;80.50;;;18.26;81.05;98111.31;5035094;28;20883;-76
2021/09/11 05:35:04;;;;;;;18.30;16.70;;;19.00;80.60;;;18.34;80.70;98116.31;5032971;28;20485;-76
2021/09/11 05:37:31;;;;;;;17.77;16.17;;;19.10;80.60;;;18.36;80.33;98122.34;5035249;28;20568;-76
2021/09/11 05:39:58;;;;;;;17.97;16.37;;;19.10;80.30;;;18.36;80.21;98114.13;5031049;28;20474;-76
2021/09/11 05:42:26;;;;;;;18.20;16.50;;;19.10;80.30;;;18.41;80.33;98127.03;5033052;28;20545;-76
2021/09/11 05:44:55;;;;;;;17.67;16.00;;;19.10;80.30;;;18.65;79.83;98127.44;5032088;28;20472;-76
2021/09/11 05:47:22;;;;;;;18.70;17.10;;;19.30;80.50;;;18.71;79.66;98116.50;5038572;28;20505;-76
2021/09/11 05:49:49;;;;;;;19.27;17.47;;;19.40;80.30;;;18.75;79.65;98112.97;5033626;28;20450;-76
2021/09/11 05:52:16;;;;;;;17.50;16.00;;;19.40;80.30;;;18.55;79.62;98091.78;5033901;28;20950;-76
2021/09/11 05:54:45;;;;;;;19.33;17.60;;;19.50;80.10;;;18.66;79.87;98111.84;5035103;28;20478;-76
2021/09/11 05:57:12;;;;;;;18.70;17.00;;;19.50;80.00;;;18.65;79.92;98121.13;5035655;28;20466;-76
2021/09/11 05:59:41;;;;;;;18.53;16.87;;;19.40;80.10;;;18.81;79.33;98122.03;5035129;28;20521;-76
2021/09/11 06:02:11;;;;;;;17.33;15.77;;;19.40;80.00;;;18.63;79.89;98126.88;5033546;28;21216;-76
2021/09/11 06:04:38;;;;;;;15.93;14.63;;;19.40;79.90;;;18.61;79.60;98123.59;5035559;28;20467;-76
2021/09/11 06:07:05;;;;;;;16.97;15.47;;;19.40;79.80;;;18.64;79.50;98131.25;5036074;28;20860;-76
2021/09/11 06:09:33;;;;;;;17.23;15.77;;;19.40;79.70;;;18.77;78.90;98121.72;5032101;28;21018;-76
2021/09/11 06:12:00;;;;;;;15.93;14.57;;;19.40;79.40;;;18.68;79.11;98118.69;5033663;28;20455;-76
2021/09/11 06:14:28;;;;;;;15.37;14.03;;;19.40;79.30;;;18.75;78.88;98128.56;5034306;28;20467;-76
2021/09/11 06:16:56;;;;;;;20.53;15.47;;;19.50;79.40;;;18.86;78.24;98126.69;5030626;28;21021;-76
2021/09/11 06:19:23;;;;;;;18.87;17.17;;;19.50;79.00;;;18.85;78.27;98125.06;5033991;28;20469;-76
2021/09/11 06:21:50;;;;;;;17.97;16.47;;;19.50;78.60;;;18.80;78.39;98123.94;5049699;28;20534;-76
2021/09/11 06:24:17;;;;;;;19.13;17.40;;;19.60;78.70;;;18.77;78.76;98118.19;5031310;28;20494;-76
2021/09/11 06:26:44;;;;;;;18.60;16.83;;;19.60;78.80;;;18.85;78.85;98123.13;5035400;28;20516;-76
2021/09/11 06:29:11;;;;;;;18.20;16.70;;;19.60;79.00;;;19.02;78.02;98130.34;5034029;28;20520;-76
2021/09/11 06:31:38;;;;;;;18.77;16.97;;;19.70;78.80;;;19.02;76.85;98113.91;5034432;28;21002;-76
2021/09/11 06:34:06;;;;;;;19.30;17.50;;;19.70;78.00;;;18.83;77.43;98112.47;5034655;28;20524;-76
2021/09/11 06:36:33;;;;;;;18.27;16.47;;;19.70;77.70;;;19.08;76.72;98124.63;5049691;28;20559;-75
2021/09/11 06:39:00;;;;;;;18.37;16.47;;;19.80;77.60;;;19.21;76.34;98127.94;5036853;28;20553;-75
2021/09/11 06:41:28;;;;;;;18.93;17.10;;;19.90;77.40;;;19.17;76.25;98133.13;5033354;28;20470;-76
2021/09/11 06:43:55;;;;;;;17.00;15.60;;;19.90;77.00;;;19.23;75.73;98125.75;5027038;28;20470;-75
2021/09/11 06:46:22;;;;;;;17.03;15.53;;;20.00;76.80;;;19.37;74.99;98126.09;5048662;28;20463;-74
2021/09/11 06:48:49;;;;;;;16.33;14.83;;;20.00;76.40;;;19.51;74.58;98123.63;5031255;28;20447;-76
2021/09/11 06:51:18;;;;;;;16.00;14.40;;;20.20;76.30;;;19.58;74.18;98120.63;5031978;28;20477;-75
2021/09/11 06:53:45;;;;;;;16.30;14.70;;;20.30;75.70;;;19.63;73.97;98124.19;5028916;28;20472;-75
2021/09/11 06:56:12;;;;;;;15.03;13.63;;;20.40;75.40;;;19.82;72.58;98126.41;5034517;28;20508;-76
2021/09/11 06:58:39;;;;;;;15.67;13.03;;;20.50;74.60;;;20.01;71.73;98134.09;5032756;28;20544;-76
2021/09/11 07:01:06;;;;;;;15.03;13.60;;;20.60;74.00;;;19.95;70.50;98097.66;5033730;28;20446;-76
2021/09/11 07:03:33;;;;;;;14.00;12.70;;;20.80;73.40;;;20.21;69.77;98119.56;5029898;28;20490;-75
2021/09/11 07:06:04;;;;;;;13.70;12.47;;;20.90;72.60;;;20.31;69.86;98122.28;5031294;28;20444;-76
2021/09/11 07:08:33;;;;;;;13.73;12.53;;;21.00;72.30;;;20.48;69.14;98122.00;5029262;28;20459;-76
2021/09/11 07:11:02;;;;;;;14.43;13.23;;;21.10;72.00;;;20.54;69.55;98131.00;5016327;28;20486;-76
2021/09/11 07:13:29;;;;;;;12.20;11.10;;;21.20;72.10;;;20.53;69.45;98141.19;5034916;28;20462;-76
2021/09/11 07:15:56;;;;;;;12.77;11.67;;;21.20;71.60;;;20.63;68.80;98134.03;5035849;28;20502;-76
2021/09/11 07:18:23;;;;;;;13.77;12.47;;;21.30;71.40;;;20.99;67.87;98146.81;5034803;28;20455;-76
2021/09/11 07:20:50;;;;;;;14.63;13.33;;;21.50;71.20;;;21.05;67.44;98138.28;5031686;28;20517;-76
2021/09/11 07:23:17;;;;;;;13.50;12.40;;;21.60;70.70;;;21.28;67.13;98143.38;5028272;28;20533;-75
2021/09/11 07:25:46;;;;;;;14.97;13.67;;;21.80;70.80;;;21.28;66.96;98135.97;5027445;28;20461;-76
2021/09/11 07:28:13;;;;;;;14.67;13.40;;;21.90;70.40;;;21.52;66.33;98138.03;5030191;28;20466;-76
2021/09/11 07:30:40;;;;;;;17.50;15.90;;;22.10;70.00;;;21.60;65.98;98150.34;5031711;28;20584;-78
2021/09/11 07:33:07;;;;;;;13.97;12.67;;;22.20;69.80;;;21.45;65.91;98149.34;5035262;28;20926;-78
2021/09/11 07:35:34;;;;;;;12.77;11.67;;;22.10;69.30;;;21.36;65.81;98134.56;5033694;28;20490;-78
2021/09/11 07:38:02;;;;;;;13.53;12.13;;;22.10;69.10;;;21.43;65.75;98157.03;5032374;28;20498;-78
2021/09/11 07:40:29;;;;;;;13.77;12.67;;;22.10;69.10;;;21.32;66.34;98141.75;5034896;28;20466;-78
2021/09/11 07:42:57;;;;;;;13.93;12.77;;;22.00;69.10;;;21.46;65.61;98159.25;5033096;28;20501;-77
2021/09/11 07:45:25;;;;;;;13.57;12.33;;;22.20;68.80;;;21.46;65.57;98139.19;5034248;28;20509;-77
2021/09/11 07:47:52;;;;;;;13.83;12.63;;;22.20;68.70;;;21.63;65.26;98160.78;5033692;28;20462;-77
2021/09/11 07:50:25;;;;;;;13.10;12.00;;;22.40;68.30;;;21.73;64.52;98160.75;5033571;28;20451;-76
2021/09/11 07:52:53;;;;;;;12.73;11.43;;;22.40;68.00;;;21.72;64.77;98167.34;5030969;28;20450;-77
2021/09/11 07:55:20;;;;;;;13.47;12.37;;;22.40;68.10;;;21.57;65.29;98150.91;5034984;28;20470;-77
2021/09/11 07:57:47;;;;;;;12.27;11.20;;;22.40;68.20;;;21.41;66.02;98170.25;5033816;28;20494;-78
2021/09/11 08:00:17;;;;;;;14.10;12.80;;;22.20;68.30;;;21.42;66.68;98166.41;5033057;28;20509;-78
2021/09/11 08:02:44;;;;;;;12.83;11.73;;;22.10;68.70;;;21.24;66.65;98154.16;5034138;28;20461;-78
2021/09/11 08:05:12;;;;;;;12.00;11.00;;;22.10;68.90;;;21.39;66.96;98177.97;5033682;28;20541;-78
2021/09/11 08:07:42;;;;;;;12.20;11.20;;;22.00;69.10;;;21.30;67.13;98165.91;5036324;28;20918;-79
2021/09/11 08:10:11;;;;;;;12.90;11.90;;;22.00;68.90;;;21.15;67.25;98170.38;5039127;28;20611;-78
2021/09/11 08:12:38;;;;;;;12.57;11.57;;;21.90;69.00;;;21.07;67.50;98151.75;5036201;28;20455;-79
2021/09/11 08:15:07;;;;;;;12.37;11.27;;;21.90;69.30;;;21.20;67.72;98181.34;5037630;28;21039;-79
2021/09/11 08:17:37;;;;;;;12.83;11.73;;;21.90;69.40;;;21.22;67.69;98181.88;5028195;28;20876;-78
2021/09/11 08:20:05;;;;;;;12.77;11.67;;;21.90;69.20;;;21.30;67.56;98183.22;5033907;28;20797;-78
2021/09/11 08:22:33;;;;;;;12.00;11.00;;;21.90;69.30;;;21.48;66.58;98189.19;5033967;28;21232;-78
2021/09/11 08:25:00;;;;;;;13.87;12.63;;;22.00;69.00;;;21.27;67.22;98180.22;5031674;28;20447;-77
2021/09/11 08:27:27;;;;;;;12.30;11.20;;;22.00;69.00;;;21.08;67.57;98172.59;5034793;28;20473;-78
2021/09/11 08:29:55;;;;;;;10.53;9.70;;;21.80;69.00;;;21.23;67.58;98183.53;5033805;28;20458;-78
2021/09/11 08:32:25;;;;;;;11.40;10.30;;;21.80;69.20;;;21.38;66.66;98187.31;5029863;28;20493;-78
2021/09/11 08:34:53;;;;;;;11.47;10.43;;;22.00;68.80;;;21.79;65.33;98181.59;5034064;28;20454;-78
2021/09/11 08:37:20;;;;;;;11.00;10.20;;;22.40;68.50;;;21.97;64.65;98189.44;5035280;28;20548;-79
2021/09/11 08:39:47;;;;;;;11.00;10.10;;;22.50;67.90;;;21.95;64.46;98181.50;5038315;28;20506;-78
2021/09/11 08:42:16;;;;;;;11.17;10.17;;;22.60;67.90;;;21.94;64.56;98177.91;5031122;28;20459;-76
2021/09/11 08:44:43;;;;;;;11.70;10.70;;;22.60;67.50;;;22.27;63.35;98163.63;5031889;28;20601;-77
2021/09/11 08:47:11;;;;;;;11.00;10.10;;;22.90;67.30;;;22.50;63.10;98180.50;5034827;28;20565;-77
2021/09/11 08:49:38;;;;;;;9.20;8.40;;;23.00;67.10;;;22.83;62.02;98177.97;5035058;28;20950;-77
2021/09/11 08:52:08;;;;;;;9.77;8.97;;;23.30;66.80;;;23.25;60.54;98180.22;5037031;28;20469;-77
2021/09/11 08:54:35;;;;;;;9.30;8.53;;;23.80;66.20;;;23.52;59.18;98178.78;5035125;28;20458;-78
2021/09/11 08:57:21;;;;;;;8.90;8.20;;;24.10;65.30;;;23.48;59.10;98179.41;5035973;28;20474;-78
2021/09/11 08:59:49;;;;;;;9.70;8.80;;;24.10;65.00;;;23.64;58.68;98176.41;5038358;28;20504;-75
2021/09/11 09:02:18;;;;;;;9.10;8.40;;;24.20;64.70;;;23.67;58.72;98184.09;5046721;28;20772;-76
2021/09/11 09:04:51;;;;;;;9.90;9.10;;;24.30;64.50;;;23.49;58.82;98182.97;5033957;28;20446;-75
2021/09/11 09:07:35;;;;;;;9.10;8.40;;;24.20;64.20;;;23.46;58.98;98176.13;5037539;28;20889;-76
2021/09/11 09:10:06;;;;;;;8.20;7.60;;;24.10;64.20;;;23.72;58.29;98177.69;5032354;28;20457;-76
2021/09/11 09:12:40;;;;;;;9.47;8.77;;;24.30;64.10;;;23.94;57.26;98179.84;5032239;28;20462;-77
2021/09/11 09:15:10;;;;;;;9.83;9.00;;;24.50;63.50;;;23.84;57.84;98182.75;5033033;28;20458;-77
2021/09/11 09:17:45;;;;;;;9.43;8.53;;;24.40;63.40;;;24.00;57.07;98177.81;5036206;28;20597;-76
2021/09/11 09:20:19;;;;;;;10.40;9.60;;;24.50;63.40;;;23.91;57.51;98174.94;5036641;28;20481;-78
2021/09/11 09:22:52;;;;;;;10.77;9.97;;;24.50;63.20;;;23.74;57.93;98173.53;5039227;28;20519;-78
2021/09/11 09:25:26;;;;;;;9.97;9.00;;;24.40;63.40;;;23.01;60.37;98175.56;5040227;28;20563;-78
2021/09/11 09:27:56;;;;;;;10.33;9.53;;;23.90;63.50;;;22.42;61.82;98165.41;5035943;28;20589;-78
2021/09/11 09:30:33;;;;;;;11.80;10.80;;;23.30;64.10;;;21.93;63.67;98164.47;5038267;28;20454;-78
2021/09/11 09:33:02;;;;;;;9.80;8.90;;;22.90;64.80;;;22.26;63.31;98172.16;5044619;28;20755;-79
2021/09/11 09:35:29;;;;;;;10.10;9.27;;;22.80;65.60;;;22.40;63.31;98177.81;5038053;28;20469;-77
2021/09/11 09:38:00;;;;;;;9.70;8.90;;;23.10;65.70;;;22.87;61.59;98181.78;5037937;28;20503;-79
2021/09/11 09:40:40;;;;;;;10.57;9.67;;;23.40;65.30;;;22.18;61.72;98102.91;5041907;28;20454;-78
2021/09/11 09:43:13;;;;;;;10.13;9.17;;;23.40;64.70;;;22.80;61.38;98173.03;5044165;28;20493;-78
2021/09/11 09:45:41;;;;;;;8.93;8.23;;;23.40;64.90;;;23.16;60.15;98171.78;5021571;28;20454;-78
2021/09/11 09:48:11;;;;;;;9.07;8.17;;;23.70;64.40;;;23.26;59.31;98173.59;5040168;28;20515;-78
2021/09/11 09:50:40;;;;;;;8.53;7.73;;;23.80;63.70;;;23.06;59.24;98168.06;5044436;28;20509;-78
2021/09/11 09:53:11;;;;;;;7.77;7.17;;;24.00;63.10;;;23.25;58.71;98170.03;5038770;28;20480;-79
2021/09/11 09:55:39;;;;;;;8.50;7.70;;;24.00;63.30;;;23.02;59.55;98177.19;5040088;28;20455;-78
2021/09/11 09:58:08;;;;;;;7.67;7.17;;;23.70;63.30;;;22.69;59.12;98119.22;5041575;28;20577;-78
2021/09/11 10:00:35;;;;;;;8.70;7.90;;;23.70;63.20;;;22.85;59.73;98159.22;5052917;28;20860;-77
2021/09/11 10:03:04;;;;;;;7.90;7.20;;;23.60;63.30;;;22.71;60.41;98166.53;5032675;28;20497;-79
2021/09/11 10:05:31;;;;;;;9.30;8.50;;;23.40;63.40;;;23.01;60.05;98167.31;5039440;28;20459;-79
2021/09/11 10:08:10;;;;;;;8.90;8.00;;;23.60;63.80;;;23.23;59.20;98166.75;5040357;28;20455;-82
2021/09/11 10:10:43;;;;;;;8.50;7.80;;;23.80;63.60;;;23.67;58.23;98164.00;5039369;28;20462;-81